createdAt,value
2022-10-19T00:00:05.696Z,102220.13
2022-10-19T00:02:33.553Z,102223.66
2022-10-19T00:05:01.440Z,102224.50
2022-10-19T00:07:31.026Z,102227.94
2022-10-19T00:09:59.110Z,102221.09
2022-10-19T00:12:26.971Z,102222.78
2022-10-19T00:14:54.825Z,102222.81
2022-10-19T00:17:22.726Z,102229.78
2022-10-19T00:19:50.576Z,102224.50
2022-10-19T00:22:18.502Z,102227.09
2022-10-19T00:24:47.816Z,102227.06
2022-10-19T00:27:15.820Z,102219.28
2022-10-19T00:29:44.241Z,102220.19
2022-10-19T00:32:12.315Z,102229.78
2022-10-19T00:34:40.297Z,102225.41
2022-10-19T00:37:08.280Z,102237.53
2022-10-19T00:39:36.244Z,102249.63
2022-10-19T00:42:05.699Z,102256.53
2022-10-19T00:45:00.233Z,102263.50
2022-10-19T00:47:28.534Z,102265.19
2022-10-19T00:49:58.419Z,102265.16
2022-10-19T00:52:27.257Z,102260.84
2022-10-19T00:54:56.444Z,102266.06
2022-10-19T00:57:28.919Z,102272.06
2022-10-19T00:59:57.101Z,102270.31
2022-10-19T01:02:24.968Z,102274.66
2022-10-19T01:08:02.568Z,102259.00
2022-10-19T01:10:37.200Z,102250.25
2022-10-19T01:13:17.719Z,102255.44
2022-10-19T01:15:54.606Z,102239.00
2022-10-19T01:18:25.337Z,102250.22
2022-10-19T01:21:26.342Z,102252.88
2022-10-19T01:24:06.167Z,102258.94
2022-10-19T01:26:50.882Z,102258.03
2022-10-19T01:29:26.461Z,102249.31
2022-10-19T01:31:59.861Z,102250.13
2022-10-19T01:34:33.630Z,102251.03
2022-10-19T01:37:04.371Z,102271.00
2022-10-19T01:39:40.845Z,102274.28
2022-10-19T01:42:13.800Z,102274.34
2022-10-19T01:44:46.523Z,102272.59
2022-10-19T01:47:18.127Z,102276.94
2022-10-19T01:49:48.809Z,102283.94
2022-10-19T01:52:19.472Z,102281.38
2022-10-19T01:54:50.558Z,102284.81
2022-10-19T01:57:21.944Z,102284.00
2022-10-19T01:59:50.570Z,102289.19
2022-10-19T02:02:19.862Z,102278.69
2022-10-19T02:04:49.910Z,102282.19
2022-10-19T02:07:18.460Z,102276.94
2022-10-19T02:09:46.303Z,102286.41
2022-10-19T02:12:14.846Z,102277.72
2022-10-19T02:14:45.963Z,102280.41
2022-10-19T02:17:16.144Z,102271.63
2022-10-19T02:19:45.412Z,102264.72
2022-10-19T02:22:13.655Z,102264.72
2022-10-19T02:24:41.691Z,102274.25
2022-10-19T02:27:10.108Z,102270.72
2022-10-19T02:29:38.232Z,102272.56
2022-10-19T02:32:06.724Z,102266.41
2022-10-19T02:34:35.065Z,102276.94
2022-10-19T02:37:04.657Z,102280.38
2022-10-19T02:39:32.855Z,102281.19
2022-10-19T02:42:04.483Z,102282.06
2022-10-19T02:44:35.344Z,102276.06
2022-10-19T02:47:06.157Z,102272.63
2022-10-19T02:49:35.895Z,102279.63
2022-10-19T02:52:06.826Z,102268.34
2022-10-19T02:54:34.915Z,102268.38
2022-10-19T03:05:22.122Z,102261.47
2022-10-19T03:07:51.389Z,102276.25
2022-10-19T03:10:22.318Z,102272.81
2022-10-19T03:12:53.276Z,102272.84
2022-10-19T03:15:27.071Z,102259.00
2022-10-19T03:17:58.003Z,102286.75
2022-10-19T03:20:28.873Z,102278.13
2022-10-19T03:23:01.119Z,102272.88
2022-10-19T03:25:32.012Z,102278.94
2022-10-19T03:28:02.998Z,102286.84
2022-10-19T03:30:33.900Z,102281.66
2022-10-19T03:33:04.928Z,102289.41
2022-10-19T03:35:35.896Z,102281.63
2022-10-19T03:38:05.110Z,102288.59
2022-10-19T03:40:33.014Z,102290.34
2022-10-19T03:43:00.854Z,102288.59
2022-10-19T03:45:28.722Z,102297.31
2022-10-19T03:47:56.633Z,102291.28
2022-10-19T03:50:24.587Z,102296.50
2022-10-19T03:52:52.538Z,102292.19
2022-10-19T03:55:21.788Z,102306.94
2022-10-19T03:57:49.778Z,102307.81
2022-10-19T04:00:17.755Z,102296.47
2022-10-19T04:02:45.730Z,102304.31
2022-10-19T04:05:13.690Z,102303.41
2022-10-19T04:07:41.626Z,102308.66
2022-10-19T04:10:09.958Z,102326.88
2022-10-19T04:12:39.228Z,102316.44
2022-10-19T04:15:07.958Z,102322.53
2022-10-19T04:17:36.230Z,102329.50
2022-10-19T04:20:05.052Z,102332.97
2022-10-19T04:22:32.958Z,102337.38
2022-10-19T04:25:00.819Z,102340.84
2022-10-19T04:27:28.719Z,102331.34
2022-10-19T04:29:58.010Z,102336.53
2022-10-19T04:32:26.034Z,102340.84
2022-10-19T04:34:53.988Z,102352.16
2022-10-19T04:37:21.896Z,102344.34
2022-10-19T04:39:49.799Z,102352.19
2022-10-19T04:42:17.728Z,102360.00
2022-10-19T04:44:45.632Z,102352.13
2022-10-19T04:47:14.915Z,102350.41
2022-10-19T04:49:42.839Z,102354.75
2022-10-19T04:52:10.702Z,102355.63
2022-10-19T04:54:38.544Z,102350.47
2022-10-19T04:57:06.394Z,102355.69
2022-10-19T04:59:34.541Z,102357.44
2022-10-19T05:02:02.375Z,102360.03
2022-10-19T05:04:31.816Z,102357.44
2022-10-19T05:06:59.666Z,102352.28
2022-10-19T05:09:27.559Z,102349.66
2022-10-19T05:11:55.450Z,102357.47
2022-10-19T05:14:23.731Z,102366.13
2022-10-19T05:16:51.640Z,102365.25
2022-10-19T05:19:19.737Z,102364.41
2022-10-19T05:21:49.003Z,102358.34
2022-10-19T05:24:16.984Z,102375.66
2022-10-19T05:26:45.151Z,102367.00
2022-10-19T05:29:14.197Z,102377.44
2022-10-19T05:31:42.073Z,102363.53
2022-10-19T05:34:10.075Z,102371.31
2022-10-19T05:36:39.631Z,102378.28
2022-10-19T05:39:11.710Z,102383.50
2022-10-19T05:41:39.593Z,102384.38
2022-10-19T05:44:07.585Z,102378.28
2022-10-19T05:46:35.725Z,102386.06
2022-10-19T05:49:03.662Z,102386.97
2022-10-19T05:51:31.540Z,102392.19
2022-10-19T05:53:59.453Z,102406.91
2022-10-19T05:56:30.126Z,102402.59
2022-10-19T05:58:58.702Z,102397.34
2022-10-19T06:01:26.975Z,102405.19
2022-10-19T06:03:55.788Z,102413.00
2022-10-19T06:06:24.043Z,102423.41
2022-10-19T06:08:53.063Z,102416.47
2022-10-19T06:11:22.358Z,102422.56
2022-10-19T06:13:52.900Z,102426.00
2022-10-19T06:16:21.494Z,102423.38
2022-10-19T06:18:49.382Z,102428.63
2022-10-19T06:21:19.586Z,102426.00
2022-10-19T06:23:51.296Z,102438.16
2022-10-19T06:26:19.602Z,102439.91
2022-10-19T06:28:47.724Z,102439.00
2022-10-19T06:31:17.111Z,102448.56
2022-10-19T06:33:48.650Z,102448.56
2022-10-19T06:36:19.780Z,102453.78
2022-10-19T06:38:47.823Z,102463.34
2022-10-19T06:41:17.799Z,102458.13
2022-10-19T06:43:46.575Z,102459.84
2022-10-19T06:46:20.296Z,102466.81
2022-10-19T06:48:51.550Z,102463.31
2022-10-19T06:51:19.547Z,102474.59
2022-10-19T06:53:47.416Z,102473.69
2022-10-19T06:56:15.313Z,102478.06
2022-10-19T06:58:43.120Z,102474.59
2022-10-19T07:01:12.183Z,102478.06
2022-10-19T07:03:41.559Z,102485.88
2022-10-19T07:06:11.436Z,102482.41
2022-10-19T07:08:40.148Z,102489.38
2022-10-19T07:11:10.292Z,102501.56
2022-10-19T07:13:38.231Z,102496.34
2022-10-19T07:16:07.884Z,102500.66
2022-10-19T07:18:37.007Z,102491.13
2022-10-19T07:21:07.916Z,102503.28
2022-10-19T07:23:37.895Z,102508.50
2022-10-19T07:26:06.752Z,102504.13
2022-10-19T07:28:35.344Z,102509.34
2022-10-19T07:31:07.477Z,102507.56
2022-10-19T07:33:35.549Z,102505.84
2022-10-19T07:36:07.050Z,102498.03
2022-10-19T07:38:35.934Z,102504.97
2022-10-19T07:41:05.708Z,102505.84
2022-10-19T07:43:33.685Z,102511.06
2022-10-19T07:46:02.648Z,102522.34
2022-10-19T07:48:30.846Z,102519.75
2022-10-19T07:50:58.930Z,102525.84
2022-10-19T07:53:28.190Z,102524.09
2022-10-19T07:55:56.169Z,102524.13
2022-10-19T07:58:24.005Z,102527.56
2022-10-19T08:00:51.879Z,102531.03
2022-10-19T08:04:13.801Z,102539.75
2022-10-19T08:06:09.796Z,102539.75
2022-10-19T08:08:39.551Z,102546.66
2022-10-19T08:11:08.336Z,102545.81
2022-10-19T08:13:36.491Z,102548.34
2022-10-19T08:16:04.513Z,102561.44
2022-10-19T08:21:05.958Z,102566.63
2022-10-19T08:23:33.840Z,102569.25
2022-10-19T08:26:03.060Z,102562.22
2022-10-19T08:28:30.943Z,102558.69
2022-10-19T08:30:59.060Z,102574.28
2022-10-19T08:33:27.491Z,102579.38
2022-10-19T08:35:55.391Z,102580.28
2022-10-19T08:38:23.297Z,102579.50
2022-10-19T08:40:51.173Z,102590.00
2022-10-19T08:43:24.177Z,102581.34
2022-10-19T08:45:57.303Z,102596.13
2022-10-19T08:48:28.457Z,102597.00
2022-10-19T08:50:57.906Z,102603.97
2022-10-19T08:53:33.473Z,102594.44
2022-10-19T08:56:08.873Z,102594.41
2022-10-19T08:58:48.659Z,102581.38
2022-10-19T09:01:25.264Z,102588.34
2022-10-19T09:03:57.562Z,102586.59
2022-10-19T09:06:28.426Z,102593.53
2022-10-19T09:08:57.051Z,102596.16
2022-10-19T09:11:26.920Z,102603.97
2022-10-19T09:14:05.854Z,102598.78
2022-10-19T09:16:35.202Z,102608.28
2022-10-19T09:19:03.709Z,102606.53
2022-10-19T09:21:46.060Z,102601.34
2022-10-19T09:24:28.345Z,102603.97
2022-10-19T09:26:57.845Z,102604.84
2022-10-19T09:29:31.243Z,102601.38
2022-10-19T09:32:00.977Z,102605.72
2022-10-19T09:34:32.592Z,102604.00
2022-10-19T09:37:00.986Z,102610.00
2022-10-19T09:39:31.392Z,102612.56
2022-10-19T09:42:02.641Z,102623.00
2022-10-19T09:44:32.234Z,102627.38
2022-10-19T09:47:07.113Z,102628.22
2022-10-19T09:49:41.879Z,102637.69
2022-10-19T09:52:25.799Z,102641.94
2022-10-19T09:55:01.304Z,102647.19
2022-10-19T09:57:29.259Z,102648.13
2022-10-19T09:59:58.487Z,102651.56
2022-10-19T10:02:31.480Z,102652.50
2022-10-19T10:05:06.748Z,102658.59
2022-10-19T10:07:37.891Z,102662.06
2022-10-19T10:10:11.810Z,102667.22
2022-10-19T10:12:41.352Z,102662.59
2022-10-19T10:15:17.385Z,102659.28
2022-10-19T10:17:46.242Z,102654.22
2022-10-19T10:20:24.413Z,102653.28
2022-10-19T10:22:56.871Z,102657.75
2022-10-19T10:25:28.210Z,102656.94
2022-10-19T10:27:58.864Z,102643.84
2022-10-19T10:30:32.144Z,102656.78
2022-10-19T10:33:08.147Z,102659.41
2022-10-19T10:35:53.466Z,102669.03
2022-10-19T10:38:24.255Z,102663.03
2022-10-19T10:40:53.971Z,102656.06
2022-10-19T10:43:25.484Z,102660.28
2022-10-19T10:45:55.914Z,102667.22
2022-10-19T10:48:29.293Z,102655.78
2022-10-19T10:50:57.647Z,102666.25
2022-10-19T10:53:35.320Z,102677.22
2022-10-19T10:56:04.323Z,102684.53
2022-10-19T10:58:38.264Z,102685.50
2022-10-19T11:01:11.937Z,102690.44
2022-10-19T11:03:47.262Z,102678.41
2022-10-19T11:06:15.861Z,102671.44
2022-10-19T11:08:49.046Z,102670.34
2022-10-19T11:11:20.209Z,102670.16
2022-10-19T11:13:52.824Z,102681.34
2022-10-19T11:16:25.731Z,102683.84
2022-10-19T11:18:55.025Z,102691.97
2022-10-19T11:21:26.364Z,102697.69
2022-10-19T11:24:01.971Z,102696.09
2022-10-19T11:26:42.966Z,102681.69
2022-10-19T11:29:25.085Z,102683.59
2022-10-19T11:31:55.406Z,102692.53
2022-10-19T11:34:39.135Z,102685.91
2022-10-19T11:37:12.327Z,102691.22
2022-10-19T11:39:48.823Z,102690.03
2022-10-19T11:42:20.671Z,102696.75
2022-10-19T11:44:59.342Z,102689.22
2022-10-19T11:47:40.005Z,102693.34
2022-10-19T11:50:29.618Z,102685.13
2022-10-19T11:53:05.150Z,102680.81
2022-10-19T11:55:39.321Z,102670.69
2022-10-19T11:58:32.372Z,102674.66
2022-10-19T12:01:10.723Z,102675.97
2022-10-19T12:04:04.697Z,102668.38
2022-10-19T12:06:37.376Z,102666.22
2022-10-19T12:09:29.110Z,102672.78
2022-10-19T12:12:06.583Z,102670.97
2022-10-19T12:14:37.735Z,102667.13
2022-10-19T12:19:49.451Z,102668.88
2022-10-19T12:22:20.646Z,102680.47
2022-10-19T12:24:50.751Z,102670.63
2022-10-19T12:27:19.792Z,102667.59
2022-10-19T12:29:49.104Z,102665.53
2022-10-19T12:32:19.058Z,102659.06
2022-10-19T12:34:56.470Z,102664.75
2022-10-19T12:37:28.165Z,102659.09
2022-10-19T12:39:59.393Z,102650.63
2022-10-19T12:42:30.998Z,102650.25
2022-10-19T12:45:11.921Z,102646.19
2022-10-19T12:47:39.869Z,102638.84
2022-10-19T12:50:09.532Z,102645.25
2022-10-19T12:52:40.906Z,102648.47
2022-10-19T12:55:14.577Z,102643.44
2022-10-19T12:57:48.022Z,102649.34
2022-10-19T13:00:21.376Z,102640.41
2022-10-19T13:02:58.031Z,102643.91
2022-10-19T13:05:29.455Z,102640.94
2022-10-19T13:07:57.859Z,102637.16
2022-10-19T13:10:26.985Z,102636.81
2022-10-19T13:12:55.810Z,102635.56
2022-10-19T13:15:51.567Z,102641.94
2022-10-19T13:19:07.655Z,102634.47
2022-10-19T13:21:49.265Z,102627.03
2022-10-19T13:24:35.976Z,102631.47
2022-10-19T13:27:26.893Z,102632.00
2022-10-19T13:29:54.831Z,102627.59
2022-10-19T13:32:44.315Z,102621.75
2022-10-19T13:35:32.662Z,102620.22
2022-10-19T13:38:27.651Z,102627.06
2022-10-19T13:41:11.841Z,102623.03
2022-10-19T13:43:42.375Z,102621.03
2022-10-19T13:46:13.169Z,102624.47
2022-10-19T13:48:57.545Z,102619.34
2022-10-19T13:51:33.828Z,102623.50
2022-10-19T13:54:20.685Z,102619.34
2022-10-19T13:57:09.652Z,102614.34
2022-10-19T14:00:07.357Z,102614.34
2022-10-19T14:03:19.124Z,102609.22
2022-10-19T14:06:08.666Z,102611.78
2022-10-19T14:09:11.325Z,102620.56
2022-10-19T14:11:41.148Z,102611.88
2022-10-19T14:14:15.434Z,102607.25
2022-10-19T14:16:51.021Z,102611.38
2022-10-19T14:19:30.329Z,102606.22
2022-10-19T14:22:00.033Z,102603.69
2022-10-19T14:24:34.958Z,102608.41
2022-10-19T14:27:03.727Z,102604.13
2022-10-19T14:29:32.571Z,102599.88
2022-10-19T14:32:00.917Z,102590.81
2022-10-19T14:34:28.869Z,102592.00
2022-10-19T14:36:56.872Z,102595.28
2022-10-19T14:39:27.574Z,102600.03
2022-10-19T14:41:58.513Z,102605.50
2022-10-19T14:44:38.536Z,102595.81
2022-10-19T14:47:19.011Z,102601.41
2022-10-19T14:49:46.992Z,102602.72
2022-10-19T14:52:18.831Z,102597.97
2022-10-19T14:54:47.717Z,102598.88
2022-10-19T14:57:20.228Z,102601.81
2022-10-19T14:59:50.834Z,102598.75
2022-10-19T15:02:20.242Z,102594.25
2022-10-19T15:04:48.780Z,102590.19
2022-10-19T15:07:19.826Z,102595.03
2022-10-19T15:09:53.617Z,102593.59
2022-10-19T15:12:26.972Z,102594.13
2022-10-19T15:14:55.111Z,102595.72
2022-10-19T15:17:25.937Z,102597.59
2022-10-19T15:19:55.688Z,102598.22
2022-10-19T15:22:27.184Z,102606.09
2022-10-19T15:25:01.336Z,102598.41
2022-10-19T15:27:35.487Z,102594.66
2022-10-19T15:30:06.893Z,102606.59
2022-10-19T15:32:37.473Z,102599.41
2022-10-19T15:35:19.782Z,102596.19
2022-10-19T15:37:49.900Z,102596.00
2022-10-19T15:40:21.790Z,102597.19
2022-10-19T15:42:51.089Z,102600.47
2022-10-19T15:45:30.110Z,102607.34
2022-10-19T15:48:25.666Z,102594.09
2022-10-19T15:50:53.579Z,102589.03
2022-10-19T15:53:22.139Z,102592.63
2022-10-19T15:55:50.411Z,102593.53
2022-10-19T15:58:21.119Z,102590.94
2022-10-19T16:00:49.395Z,102579.69
2022-10-19T16:03:17.267Z,102582.28
2022-10-19T16:05:45.164Z,102570.03
2022-10-19T16:08:12.971Z,102564.81
2022-10-19T16:10:40.788Z,102565.66
2022-10-19T16:13:08.711Z,102566.44
2022-10-19T16:15:37.884Z,102578.53
2022-10-19T16:18:05.794Z,102575.00
2022-10-19T16:20:33.608Z,102570.59
2022-10-19T16:23:01.498Z,102569.72
2022-10-19T16:25:29.405Z,102576.53
2022-10-19T16:27:57.257Z,102572.97
2022-10-19T16:30:25.335Z,102564.28
2022-10-19T16:32:54.534Z,102567.72
2022-10-19T16:35:23.069Z,102564.94
2022-10-19T16:37:50.953Z,102572.69
2022-10-19T16:40:18.752Z,102574.41
2022-10-19T16:42:46.691Z,102574.28
2022-10-19T16:45:14.482Z,102557.81
2022-10-19T16:47:42.389Z,102560.34
2022-10-19T16:50:12.497Z,102556.78
2022-10-19T16:52:40.551Z,102555.09
2022-10-19T16:55:09.226Z,102557.69
2022-10-19T16:57:37.137Z,102574.97
2022-10-19T17:00:09.363Z,102574.78
2022-10-19T17:02:41.797Z,102562.66
2022-10-19T17:05:13.928Z,102558.41
2022-10-19T17:07:41.862Z,102568.75
2022-10-19T17:10:10.851Z,102567.84
2022-10-19T17:12:40.736Z,102575.47
2022-10-19T17:15:40.910Z,102560.75
2022-10-19T17:17:58.110Z,102567.78
2022-10-19T17:20:27.340Z,102583.97
2022-10-19T17:22:55.164Z,102575.84
2022-10-19T17:25:23.039Z,102572.50
2022-10-19T17:27:51.518Z,102569.78
2022-10-19T17:30:19.690Z,102571.38
2022-10-19T17:32:47.670Z,102566.88
2022-10-19T17:35:15.699Z,102569.28
2022-10-19T17:37:44.939Z,102566.00
2022-10-19T17:40:13.507Z,102564.09
2022-10-19T17:42:41.718Z,102564.84
2022-10-19T17:45:11.046Z,102563.88
2022-10-19T17:47:39.000Z,102561.16
2022-10-19T17:50:07.884Z,102556.66
2022-10-19T17:52:35.940Z,102557.34
2022-10-19T17:55:12.267Z,102553.78
2022-10-19T17:57:41.023Z,102553.00
2022-10-19T18:00:09.782Z,102550.53
2022-10-19T18:02:40.689Z,102542.75
2022-10-19T18:05:09.770Z,102545.25
2022-10-19T18:07:37.972Z,102541.72
2022-10-19T18:10:08.102Z,102549.44
2022-10-19T18:12:35.984Z,102548.34
2022-10-19T18:15:04.143Z,102551.81
2022-10-19T18:17:32.038Z,102550.91
2022-10-19T18:19:59.911Z,102561.00
2022-10-19T18:22:27.803Z,102556.03
2022-10-19T18:24:55.710Z,102569.63
2022-10-19T18:27:25.045Z,102566.31
2022-10-19T18:29:53.137Z,102567.88
2022-10-19T18:32:21.056Z,102572.06
2022-10-19T18:34:49.118Z,102570.19
2022-10-19T18:37:17.121Z,102570.78
2022-10-19T18:39:44.967Z,102566.78
2022-10-19T18:42:13.207Z,102567.41
2022-10-19T18:44:42.375Z,102575.94
2022-10-19T18:47:11.810Z,102572.28
2022-10-19T18:49:39.662Z,102573.81
2022-10-19T18:52:07.555Z,102570.31
2022-10-19T18:54:35.458Z,102562.75
2022-10-19T18:57:03.444Z,102572.13
2022-10-19T18:59:31.518Z,102575.47
2022-10-19T19:02:07.875Z,102575.41
2022-10-19T19:04:41.758Z,102579.56
2022-10-19T19:07:10.153Z,102578.63
2022-10-19T19:09:38.154Z,102577.44
2022-10-19T19:12:06.098Z,102568.69
2022-10-19T19:14:34.058Z,102571.03
2022-10-19T19:17:03.631Z,102576.84
2022-10-19T19:19:31.554Z,102568.97
2022-10-19T19:22:05.122Z,102572.47
2022-10-19T19:24:35.823Z,102570.47
2022-10-19T19:27:03.809Z,102576.28
2022-10-19T19:29:31.795Z,102574.50
2022-10-19T19:31:59.816Z,102577.88
2022-10-19T19:34:29.212Z,102578.69
2022-10-19T19:36:57.316Z,102575.88
2022-10-19T19:39:25.257Z,102578.50
2022-10-19T19:41:53.271Z,102586.34
2022-10-19T19:44:21.175Z,102582.72
2022-10-19T19:46:49.094Z,102580.78
2022-10-19T19:49:17.279Z,102576.38
2022-10-19T19:51:46.569Z,102563.59
2022-10-19T19:54:14.702Z,102559.31
2022-10-19T19:56:43.330Z,102558.34
2022-10-19T19:59:12.160Z,102556.25
2022-10-19T20:01:40.156Z,102558.09
2022-10-19T20:04:08.247Z,102554.50
2022-10-19T20:06:37.381Z,102564.41
2022-10-19T20:09:07.278Z,102561.69
2022-10-19T20:11:39.661Z,102559.16
2022-10-19T20:14:10.006Z,102561.69
2022-10-19T20:16:38.013Z,102563.28
2022-10-19T20:19:08.113Z,102562.13
2022-10-19T20:21:36.056Z,102568.69
2022-10-19T20:24:04.449Z,102555.59
2022-10-19T20:26:34.025Z,102558.09
2022-10-19T20:29:02.872Z,102560.69
2022-10-19T20:31:31.357Z,102565.63
2022-10-19T20:33:59.279Z,102560.50
2022-10-19T20:36:27.645Z,102563.00
2022-10-19T20:38:56.971Z,102572.31
2022-10-19T20:41:26.562Z,102562.72
2022-10-19T20:43:56.276Z,102563.34
2022-10-19T20:46:26.011Z,102573.44
2022-10-19T20:48:54.692Z,102565.66
2022-10-19T20:51:27.462Z,102567.16
2022-10-19T20:53:59.432Z,102570.69
2022-10-19T20:56:29.269Z,102561.19
2022-10-19T20:59:00.317Z,102551.13
2022-10-19T21:01:29.746Z,102556.84
2022-10-19T21:04:00.502Z,102555.06
2022-10-19T21:06:29.836Z,102550.59
2022-10-19T21:08:58.625Z,102551.34
2022-10-19T21:11:28.516Z,102551.34
2022-10-19T21:14:02.262Z,102547.16
2022-10-19T21:16:33.620Z,102553.09
2022-10-19T21:19:02.379Z,102547.81
2022-10-19T21:21:31.939Z,102544.09
2022-10-19T21:24:02.449Z,102548.22
2022-10-19T21:26:30.389Z,102539.47
2022-10-19T21:28:59.993Z,102544.47
2022-10-19T21:31:28.264Z,102536.69
2022-10-19T21:33:56.313Z,102528.91
2022-10-19T21:36:25.495Z,102520.28
2022-10-19T21:38:53.417Z,102519.34
2022-10-19T21:41:25.454Z,102510.69
2022-10-19T21:43:54.731Z,102517.56
2022-10-19T21:46:24.430Z,102506.63
2022-10-19T21:48:53.793Z,102504.84
2022-10-19T21:51:32.616Z,102502.91
2022-10-19T21:54:00.587Z,102498.50
2022-10-19T21:56:29.254Z,102488.03
2022-10-19T21:58:57.717Z,102480.16
2022-10-19T22:01:28.725Z,102474.16
2022-10-19T22:03:57.401Z,102474.00
2022-10-19T22:06:25.727Z,102470.59
2022-10-19T22:08:53.960Z,102466.47
2022-10-19T22:11:22.404Z,102469.66
2022-10-19T22:13:50.436Z,102465.28
2022-10-19T22:16:19.955Z,102460.56
2022-10-19T22:18:49.665Z,102450.19
2022-10-19T22:21:20.365Z,102446.69
2022-10-19T22:23:52.773Z,102456.00
2022-10-19T22:26:23.349Z,102448.88
2022-10-19T22:28:51.488Z,102446.09
2022-10-19T22:31:19.757Z,102450.34
2022-10-19T22:33:49.114Z,102444.44
2022-10-19T22:36:17.235Z,102443.47
2022-10-19T22:38:45.406Z,102443.75
2022-10-19T22:41:13.298Z,102443.56
2022-10-19T22:43:41.235Z,102432.22
2022-10-19T22:46:09.331Z,102432.09
2022-10-19T22:48:37.224Z,102438.72
2022-10-19T22:51:06.508Z,102441.13
2022-10-19T22:53:34.409Z,102433.38
2022-10-19T22:56:02.464Z,102424.88
2022-10-19T22:58:30.469Z,102424.78
2022-10-19T23:01:02.885Z,102427.50
2022-10-19T23:03:30.878Z,102429.94
2022-10-19T23:05:58.871Z,102423.84
2022-10-19T23:08:28.204Z,102423.03
2022-10-19T23:10:56.164Z,102417.94
2022-10-19T23:13:24.119Z,102424.13
2022-10-19T23:15:52.024Z,102420.59
2022-10-19T23:18:20.168Z,102417.28
2022-10-19T23:20:57.796Z,102420.34
2022-10-19T23:23:25.937Z,102416.72
2022-10-19T23:26:02.848Z,102415.97
2022-10-19T23:28:31.574Z,102421.19
2022-10-19T23:31:00.120Z,102417.91
2022-10-19T23:33:28.025Z,102412.81
2022-10-19T23:35:55.892Z,102419.47
2022-10-19T23:38:23.856Z,102412.63
2022-10-19T23:40:51.663Z,102413.47
2022-10-19T23:43:20.948Z,102405.91
2022-10-19T23:45:48.831Z,102409.00
2022-10-19T23:48:16.641Z,102405.75
2022-10-19T23:50:44.672Z,102410.88
2022-10-19T23:53:12.693Z,102411.69
2022-10-19T23:55:40.497Z,102413.38
2022-10-19T23:58:08.568Z,102409.75
